sensor_id;sensor_type;location;lat;lon;timestamp;pressure;altitude;pressure_sealevel;temperature;humidity
31096;BME280;17749;51.962;8.560;2023-03-19T06:02:24;99755.41;;;6.83;100.00
31096;BME280;17749;51.962;8.560;2023-03-19T06:05:05;99763.41;;;6.82;100.00
31096;BME280;17749;51.962;8.560;2023-03-19T06:07:32;99758.16;;;6.80;100.00
31096;BME280;17749;51.962;8.560;2023-03-19T06:10:01;99747.59;;;6.78;100.00
31096;BME280;17749;51.962;8.560;2023-03-19T06:12:28;99754.63;;;6.79;100.00
31096;BME280;17749;51.962;8.560;2023-03-19T06:15:16;99750.44;;;6.72;100.00
31096;BME280;17749;51.962;8.560;2023-03-19T06:17:43;99751.28;;;6.73;100.00
31096;BME280;17749;51.962;8.560;2023-03-19T06:20:13;99751.41;;;6.70;100.00
31096;BME280;17749;51.962;8.560;2023-03-19T06:22:41;99761.94;;;6.71;100.00
31096;BME280;17749;51.962;8.560;2023-03-19T06:25:09;99760.16;;;6.72;100.00
31096;BME280;17749;51.962;8.560;2023-03-19T06:27:37;99756.66;;;6.71;100.00
31096;BME280;17749;51.962;8.560;2023-03-19T06:30:20;99762.72;;;6.75;100.00
31096;BME280;17749;51.962;8.560;2023-03-19T06:32:48;99763.47;;;6.78;100.00
31096;BME280;17749;51.962;8.560;2023-03-19T06:35:15;99760.69;;;6.83;100.00
31096;BME280;17749;51.962;8.560;2023-03-19T06:37:45;99767.75;;;6.84;100.00
31096;BME280;17749;51.962;8.560;2023-03-19T06:40:13;99774.66;;;6.88;100.00
31096;BME280;17749;51.962;8.560;2023-03-19T06:42:44;99774.50;;;6.94;100.00
31096;BME280;17749;51.962;8.560;2023-03-19T06:45:14;99775.16;;;7.01;100.00
31096;BME280;17749;51.962;8.560;2023-03-19T06:47:45;99773.19;;;7.08;100.00
31096;BME280;17749;51.962;8.560;2023-03-19T06:53:37;99779.59;;;7.29;100.00
31096;BME280;17749;51.962;8.560;2023-03-19T06:56:04;99764.31;;;7.37;100.00
31096;BME280;17749;51.962;8.560;2023-03-19T06:58:31;99774.34;;;7.54;100.00
31096;BME280;17749;51.962;8.560;2023-03-19T07:00:58;99781.81;;;7.69;100.00
31096;BME280;17749;51.962;8.560;2023-03-19T07:03:25;99778.59;;;7.86;100.00
31096;BME280;17749;51.962;8.560;2023-03-19T07:05:52;99779.72;;;8.04;100.00
31096;BME280;17749;51.962;8.560;2023-03-19T07:08:19;99797.59;;;8.24;100.00
31096;BME280;17749;51.962;8.560;2023-03-19T07:10:46;99803.34;;;8.37;100.00
31096;BME280;17749;51.962;8.560;2023-03-19T07:13:13;99801.91;;;8.53;100.00
31096;BME280;17749;51.962;8.560;2023-03-19T07:15:40;99803.06;;;8.69;100.00
31096;BME280;17749;51.962;8.560;2023-03-19T07:18:06;99796.47;;;8.80;100.00
31096;BME280;17749;51.962;8.560;2023-03-19T07:20:33;99805.59;;;8.96;100.00
31096;BME280;17749;51.962;8.560;2023-03-19T07:23:00;99808.59;;;9.10;100.00
31096;BME280;17749;51.962;8.560;2023-03-19T07:25:27;99818.63;;;9.26;100.00
31096;BME280;17749;51.962;8.560;2023-03-19T07:27:54;99807.44;;;9.39;100.00
31096;BME280;17749;51.962;8.560;2023-03-19T07:30:21;99805.28;;;9.49;100.00
31096;BME280;17749;51.962;8.560;2023-03-19T07:32:48;99812.69;;;9.63;100.00
31096;BME280;17749;51.962;8.560;2023-03-19T07:35:16;99817.56;;;9.74;100.00
31096;BME280;17749;51.962;8.560;2023-03-19T07:37:42;99816.25;;;9.84;100.00
31096;BME280;17749;51.962;8.560;2023-03-19T07:40:10;99805.34;;;9.90;100.00
31096;BME280;17749;51.962;8.560;2023-03-19T07:42:37;99809.13;;;10.06;100.00
31096;BME280;17749;51.962;8.560;2023-03-19T07:45:04;99808.56;;;10.19;100.00
31096;BME280;17749;51.962;8.560;2023-03-19T07:47:31;99811.69;;;10.30;100.00
31096;BME280;17749;51.962;8.560;2023-03-19T07:49:58;99810.47;;;10.37;100.00
31096;BME280;17749;51.962;8.560;2023-03-19T07:52:26;99816.19;;;10.48;100.00
31096;BME280;17749;51.962;8.560;2023-03-19T07:54:53;99812.19;;;10.59;100.00
31096;BME280;17749;51.962;8.560;2023-03-19T07:57:20;99818.75;;;10.70;100.00
31096;BME280;17749;51.962;8.560;2023-03-19T07:59:47;99821.13;;;10.77;100.00
31096;BME280;17749;51.962;8.560;2023-03-19T08:02:14;99822.03;;;10.77;100.00
31096;BME280;17749;51.962;8.560;2023-03-19T08:04:40;99824.34;;;10.85;100.00
31096;BME280;17749;51.962;8.560;2023-03-19T08:07:08;99831.09;;;10.92;100.00
31096;BME280;17749;51.962;8.560;2023-03-19T08:09:38;99827.50;;;10.93;100.00
31096;BME280;17749;51.962;8.560;2023-03-19T08:12:06;99830.09;;;10.94;100.00
31096;BME280;17749;51.962;8.560;2023-03-19T08:14:34;99831.84;;;10.95;100.00
31096;BME280;17749;51.962;8.560;2023-03-19T08:17:01;99827.28;;;10.97;100.00
31096;BME280;17749;51.962;8.560;2023-03-19T08:19:28;99826.38;;;10.99;100.00
31096;BME280;17749;51.962;8.560;2023-03-19T08:21:55;99831.41;;;11.05;100.00
31096;BME280;17749;51.962;8.560;2023-03-19T08:24:22;99841.91;;;11.08;100.00
31096;BME280;17749;51.962;8.560;2023-03-19T08:26:49;99840.91;;;11.10;100.00
31096;BME280;17749;51.962;8.560;2023-03-19T08:29:16;99842.50;;;11.14;100.00
31096;BME280;17749;51.962;8.560;2023-03-19T08:31:44;99844.81;;;11.22;100.00
31096;BME280;17749;51.962;8.560;2023-03-19T08:34:12;99851.59;;;11.29;100.00
31096;BME280;17749;51.962;8.560;2023-03-19T08:36:39;99845.97;;;11.35;100.00
31096;BME280;17749;51.962;8.560;2023-03-19T08:39:06;99846.50;;;11.42;100.00
31096;BME280;17749;51.962;8.560;2023-03-19T08:41:33;99843.63;;;11.47;100.00
31096;BME280;17749;51.962;8.560;2023-03-19T08:44:00;99839.75;;;11.54;100.00
31096;BME280;17749;51.962;8.560;2023-03-19T08:46:27;99838.44;;;11.62;100.00
31096;BME280;17749;51.962;8.560;2023-03-19T08:48:55;99842.59;;;11.68;100.00
31096;BME280;17749;51.962;8.560;2023-03-19T08:51:22;99836.81;;;11.77;100.00
31096;BME280;17749;51.962;8.560;2023-03-19T08:53:51;99837.47;;;11.82;100.00
31096;BME280;17749;51.962;8.560;2023-03-19T08:56:19;99839.84;;;11.89;100.00
31096;BME280;17749;51.962;8.560;2023-03-19T08:58:46;99835.78;;;11.99;100.00
31096;BME280;17749;51.962;8.560;2023-03-19T09:01:13;99832.78;;;12.05;100.00
31096;BME280;17749;51.962;8.560;2023-03-19T09:03:41;99832.19;;;12.17;100.00
31096;BME280;17749;51.962;8.560;2023-03-19T09:06:10;99842.00;;;12.34;100.00
31096;BME280;17749;51.962;8.560;2023-03-19T09:08:37;99844.13;;;12.45;100.00
31096;BME280;17749;51.962;8.560;2023-03-19T09:11:05;99843.31;;;12.60;100.00
31096;BME280;17749;51.962;8.560;2023-03-19T09:13:32;99839.06;;;12.74;100.00
31096;BME280;17749;51.962;8.560;2023-03-19T09:15:59;99839.69;;;12.79;100.00
31096;BME280;17749;51.962;8.560;2023-03-19T09:18:27;99835.44;;;12.75;100.00
31096;BME280;17749;51.962;8.560;2023-03-19T09:20:54;99839.28;;;12.69;100.00
31096;BME280;17749;51.962;8.560;2023-03-19T09:23:21;99846.91;;;12.59;100.00
31096;BME280;17749;51.962;8.560;2023-03-19T09:25:48;99847.66;;;12.63;100.00
31096;BME280;17749;51.962;8.560;2023-03-19T09:28:16;99859.03;;;12.66;100.00
31096;BME280;17749;51.962;8.560;2023-03-19T09:30:47;99848.34;;;12.66;100.00
31096;BME280;17749;51.962;8.560;2023-03-19T09:33:16;99864.88;;;12.73;100.00
31096;BME280;17749;51.962;8.560;2023-03-19T09:35:49;99859.59;;;12.89;100.00
31096;BME280;17749;51.962;8.560;2023-03-19T09:38:18;99857.53;;;12.94;100.00
31096;BME280;17749;51.962;8.560;2023-03-19T09:40:47;99857.22;;;13.00;100.00
31096;BME280;17749;51.962;8.560;2023-03-19T09:43:40;99866.50;;;12.93;100.00
31096;BME280;17749;51.962;8.560;2023-03-19T09:46:18;99861.00;;;12.96;100.00
31096;BME280;17749;51.962;8.560;2023-03-19T09:49:11;99871.53;;;12.99;100.00
31096;BME280;17749;51.962;8.560;2023-03-19T09:51:46;99871.22;;;13.05;100.00
31096;BME280;17749;51.962;8.560;2023-03-19T09:56:54;99866.91;;;13.19;100.00
31096;BME280;17749;51.962;8.560;2023-03-19T09:59:23;99867.16;;;13.31;100.00
31096;BME280;17749;51.962;8.560;2023-03-19T10:01:56;99866.53;;;13.42;100.00
31096;BME280;17749;51.962;8.560;2023-03-19T10:04:35;99872.50;;;13.47;100.00
31096;BME280;17749;51.962;8.560;2023-03-19T10:12:55;99866.63;;;13.72;100.00
31096;BME280;17749;51.962;8.560;2023-03-19T10:15:29;99863.50;;;13.80;100.00
31096;BME280;17749;51.962;8.560;2023-03-19T10:18:01;99852.47;;;13.86;100.00
31096;BME280;17749;51.962;8.560;2023-03-19T10:20:42;99855.56;;;13.94;100.00
31096;BME280;17749;51.962;8.560;2023-03-19T10:25:58;99856.00;;;14.17;100.00
31096;BME280;17749;51.962;8.560;2023-03-19T10:28:34;99855.88;;;14.34;100.00
31096;BME280;17749;51.962;8.560;2023-03-19T10:31:28;99854.88;;;14.51;100.00
31096;BME280;17749;51.962;8.560;2023-03-19T10:34:49;99860.22;;;14.81;100.00
31096;BME280;17749;51.962;8.560;2023-03-19T10:37:14;99859.25;;;15.11;100.00
31096;BME280;17749;51.962;8.560;2023-03-19T10:39:43;99858.59;;;15.36;100.00
31096;BME280;17749;51.962;8.560;2023-03-19T10:42:34;99867.44;;;15.51;100.00
31096;BME280;17749;51.962;8.560;2023-03-19T10:47:55;99870.63;;;15.57;100.00
31096;BME280;17749;51.962;8.560;2023-03-19T10:55:47;99879.31;;;15.61;100.00
31096;BME280;17749;51.962;8.560;2023-03-19T10:58:22;99886.16;;;15.52;100.00
31096;BME280;17749;51.962;8.560;2023-03-19T11:01:08;99888.66;;;15.41;100.00
31096;BME280;17749;51.962;8.560;2023-03-19T11:03:50;99892.97;;;15.44;100.00
31096;BME280;17749;51.962;8.560;2023-03-19T11:06:19;99891.06;;;15.46;100.00
31096;BME280;17749;51.962;8.560;2023-03-19T11:09:12;99893.56;;;15.49;100.00
31096;BME280;17749;51.962;8.560;2023-03-19T11:11:49;99894.69;;;15.45;100.00
31096;BME280;17749;51.962;8.560;2023-03-19T11:14:26;99892.59;;;15.36;100.00
31096;BME280;17749;51.962;8.560;2023-03-19T11:22:23;99902.19;;;15.25;100.00
31096;BME280;17749;51.962;8.560;2023-03-19T11:25:40;99889.44;;;15.29;100.00
31096;BME280;17749;51.962;8.560;2023-03-19T11:27:57;99895.66;;;15.29;100.00
31096;BME280;17749;51.962;8.560;2023-03-19T11:30:30;99899.72;;;15.22;100.00
31096;BME280;17749;51.962;8.560;2023-03-19T11:35:50;99893.34;;;14.95;100.00
31096;BME280;17749;51.962;8.560;2023-03-19T11:38:37;99897.44;;;14.72;100.00
31096;BME280;17749;51.962;8.560;2023-03-19T11:41:09;99896.13;;;14.79;100.00
31096;BME280;17749;51.962;8.560;2023-03-19T11:43:58;99901.47;;;14.79;100.00
31096;BME280;17749;51.962;8.560;2023-03-19T12:02:45;99893.19;;;15.12;100.00
31096;BME280;17749;51.962;8.560;2023-03-19T12:05:58;99894.25;;;15.09;100.00
31096;BME280;17749;51.962;8.560;2023-03-19T12:08:30;99902.88;;;15.15;100.00
31096;BME280;17749;51.962;8.560;2023-03-19T12:14:24;99895.28;;;15.07;100.00
31096;BME280;17749;51.962;8.560;2023-03-19T12:25:19;99897.31;;;15.18;100.00
31096;BME280;17749;51.962;8.560;2023-03-19T12:30:44;99896.81;;;15.11;100.00
31096;BME280;17749;51.962;8.560;2023-03-19T12:36:06;99896.63;;;15.00;100.00
31096;BME280;17749;51.962;8.560;2023-03-19T12:38:38;99895.47;;;14.89;100.00
31096;BME280;17749;51.962;8.560;2023-03-19T12:41:13;99901.66;;;14.76;100.00
31096;BME280;17749;51.962;8.560;2023-03-19T12:46:18;99897.91;;;14.64;100.00
31096;BME280;17749;51.962;8.560;2023-03-19T12:48:50;99898.47;;;14.55;100.00
31096;BME280;17749;51.962;8.560;2023-03-19T12:51:22;99899.94;;;14.44;100.00
31096;BME280;17749;51.962;8.560;2023-03-19T12:54:00;99897.63;;;14.38;100.00
31096;BME280;17749;51.962;8.560;2023-03-19T12:59:27;99894.50;;;14.30;100.00
31096;BME280;17749;51.962;8.560;2023-03-19T13:02:02;99902.13;;;14.22;100.00
31096;BME280;17749;51.962;8.560;2023-03-19T13:04:39;99900.78;;;14.15;100.00
31096;BME280;17749;51.962;8.560;2023-03-19T13:07:17;99898.56;;;14.07;100.00
31096;BME280;17749;51.962;8.560;2023-03-19T13:09:57;99893.28;;;14.06;100.00
31096;BME280;17749;51.962;8.560;2023-03-19T13:12:31;99891.28;;;14.09;100.00
31096;BME280;17749;51.962;8.560;2023-03-19T13:15:14;99885.66;;;14.14;100.00
31096;BME280;17749;51.962;8.560;2023-03-19T13:23:03;99890.72;;;14.34;100.00
31096;BME280;17749;51.962;8.560;2023-03-19T13:25:38;99893.47;;;14.33;100.00
31096;BME280;17749;51.962;8.560;2023-03-19T13:28:11;99887.84;;;14.37;100.00
31096;BME280;17749;51.962;8.560;2023-03-19T13:31:17;99887.59;;;14.42;100.00
31096;BME280;17749;51.962;8.560;2023-03-19T13:36:34;99876.28;;;14.51;100.00
31096;BME280;17749;51.962;8.560;2023-03-19T13:39:02;99877.03;;;14.55;100.00
31096;BME280;17749;51.962;8.560;2023-03-19T13:46:46;99874.38;;;14.69;100.00
31096;BME280;17749;51.962;8.560;2023-03-19T13:49:30;99867.88;;;14.73;100.00
31096;BME280;17749;51.962;8.560;2023-03-19T13:54:46;99875.53;;;14.79;100.00
31096;BME280;17749;51.962;8.560;2023-03-19T13:59:47;99863.75;;;14.82;100.00
31096;BME280;17749;51.962;8.560;2023-03-19T14:05:01;99860.22;;;14.81;100.00
31096;BME280;17749;51.962;8.560;2023-03-19T14:07:34;99866.34;;;14.83;100.00
31096;BME280;17749;51.962;8.560;2023-03-19T14:10:20;99862.78;;;14.68;100.00
31096;BME280;17749;51.962;8.560;2023-03-19T14:12:48;99862.78;;;14.68;100.00
31096;BME280;17749;51.962;8.560;2023-03-19T14:15:20;99858.09;;;14.72;100.00
31096;BME280;17749;51.962;8.560;2023-03-19T14:20:21;99859.84;;;14.73;100.00
31096;BME280;17749;51.962;8.560;2023-03-19T14:26:03;99861.75;;;14.71;100.00
31096;BME280;17749;51.962;8.560;2023-03-19T14:31:02;99861.94;;;14.68;100.00
31096;BME280;17749;51.962;8.560;2023-03-19T14:33:42;99867.66;;;14.62;100.00
31096;BME280;17749;51.962;8.560;2023-03-19T14:36:16;99863.72;;;14.53;100.00
31096;BME280;17749;51.962;8.560;2023-03-19T14:38:49;99870.84;;;14.38;100.00
31096;BME280;17749;51.962;8.560;2023-03-19T14:41:20;99870.84;;;14.22;100.00
31096;BME280;17749;51.962;8.560;2023-03-19T14:46:49;99866.97;;;13.82;100.00
31096;BME280;17749;51.962;8.560;2023-03-19T14:52:35;99875.25;;;13.46;100.00
31096;BME280;17749;51.962;8.560;2023-03-19T14:55:13;99876.97;;;13.31;100.00
31096;BME280;17749;51.962;8.560;2023-03-19T14:57:40;99877.63;;;13.19;100.00
31096;BME280;17749;51.962;8.560;2023-03-19T15:00:15;99880.59;;;13.12;100.00
31096;BME280;17749;51.962;8.560;2023-03-19T15:02:46;99890.16;;;13.01;100.00
31096;BME280;17749;51.962;8.560;2023-03-19T15:05:20;99914.16;;;13.02;100.00
31096;BME280;17749;51.962;8.560;2023-03-19T15:07:49;99908.19;;;12.97;100.00
31096;BME280;17749;51.962;8.560;2023-03-19T15:10:24;99918.94;;;12.96;100.00
31096;BME280;17749;51.962;8.560;2023-03-19T15:16:00;99909.78;;;12.84;100.00
31096;BME280;17749;51.962;8.560;2023-03-19T15:18:30;99911.50;;;12.85;100.00
31096;BME280;17749;51.962;8.560;2023-03-19T15:20:58;99907.56;;;12.75;100.00
31096;BME280;17749;51.962;8.560;2023-03-19T15:23:26;99919.28;;;12.55;100.00
31096;BME280;17749;51.962;8.560;2023-03-19T15:25:56;99920.94;;;12.40;100.00
31096;BME280;17749;51.962;8.560;2023-03-19T15:28:28;99925.56;;;12.36;100.00
31096;BME280;17749;51.962;8.560;2023-03-19T15:33:45;99919.91;;;12.42;100.00
31096;BME280;17749;51.962;8.560;2023-03-19T15:36:18;99911.13;;;12.40;100.00
31096;BME280;17749;51.962;8.560;2023-03-19T15:41:21;99909.84;;;12.30;100.00
31096;BME280;17749;51.962;8.560;2023-03-19T15:43:49;99912.75;;;12.25;100.00
31096;BME280;17749;51.962;8.560;2023-03-19T15:46:21;99918.25;;;12.22;100.00
31096;BME280;17749;51.962;8.560;2023-03-19T15:48:55;99909.91;;;12.28;100.00
31096;BME280;17749;51.962;8.560;2023-03-19T15:51:25;99921.22;;;12.34;100.00
31096;BME280;17749;51.962;8.560;2023-03-19T15:53:52;99920.38;;;12.33;100.00
31096;BME280;17749;51.962;8.560;2023-03-19T15:56:20;99925.56;;;12.36;100.00
31096;BME280;17749;51.962;8.560;2023-03-19T15:58:49;99926.28;;;12.40;100.00
31096;BME280;17749;51.962;8.560;2023-03-19T16:01:19;99926.19;;;12.41;100.00
31096;BME280;17749;51.962;8.560;2023-03-19T16:04:07;99924.41;;;12.42;100.00
31096;BME280;17749;51.962;8.560;2023-03-19T16:06:39;99922.50;;;12.44;100.00
31096;BME280;17749;51.962;8.560;2023-03-19T16:11:56;99934.75;;;12.48;100.00
31096;BME280;17749;51.962;8.560;2023-03-19T16:17:32;99936.25;;;12.54;100.00
31096;BME280;17749;51.962;8.560;2023-03-19T16:20:01;99934.44;;;12.54;100.00
31096;BME280;17749;51.962;8.560;2023-03-19T16:22:31;99940.66;;;12.55;100.00
31096;BME280;17749;51.962;8.560;2023-03-19T16:24:58;99935.31;;;12.55;100.00
31096;BME280;17749;51.962;8.560;2023-03-19T16:27:34;99945.22;;;12.53;100.00
31096;BME280;17749;51.962;8.560;2023-03-19T16:30:02;99939.94;;;12.51;100.00
31096;BME280;17749;51.962;8.560;2023-03-19T16:32:39;99947.91;;;12.53;100.00
31096;BME280;17749;51.962;8.560;2023-03-19T16:35:16;99955.75;;;12.56;100.00
31096;BME280;17749;51.962;8.560;2023-03-19T16:37:48;99947.00;;;12.52;100.00
31096;BME280;17749;51.962;8.560;2023-03-19T16:42:53;99963.34;;;12.46;100.00
31096;BME280;17749;51.962;8.560;2023-03-19T16:47:56;99970.72;;;12.41;100.00
31096;BME280;17749;51.962;8.560;2023-03-19T16:50:37;99982.34;;;12.40;100.00
31096;BME280;17749;51.962;8.560;2023-03-19T16:53:19;99983.28;;;12.39;100.00
31096;BME280;17749;51.962;8.560;2023-03-19T16:55:50;99972.91;;;12.33;100.00
31096;BME280;17749;51.962;8.560;2023-03-19T16:58:22;99985.31;;;12.34;100.00
31096;BME280;17749;51.962;8.560;2023-03-19T17:00:52;99975.91;;;12.26;100.00
31096;BME280;17749;51.962;8.560;2023-03-19T17:03:19;99980.28;;;12.27;100.00
31096;BME280;17749;51.962;8.560;2023-03-19T17:05:46;99986.63;;;12.25;100.00
31096;BME280;17749;51.962;8.560;2023-03-19T17:08:14;99977.13;;;12.19;100.00
31096;BME280;17749;51.962;8.560;2023-03-19T17:10:46;99977.28;;;12.16;100.00
31096;BME280;17749;51.962;8.560;2023-03-19T17:13:43;99980.75;;;12.18;100.00
31096;BME280;17749;51.962;8.560;2023-03-19T17:16:11;99980.88;;;12.15;100.00
31096;BME280;17749;51.962;8.560;2023-03-19T17:18:41;99979.81;;;12.19;100.00
31096;BME280;17749;51.962;8.560;2023-03-19T17:21:12;99984.66;;;12.11;100.00
31096;BME280;17749;51.962;8.560;2023-03-19T17:23:41;99982.13;;;12.08;100.00
31096;BME280;17749;51.962;8.560;2023-03-19T17:26:26;99984.00;;;12.06;100.00
31096;BME280;17749;51.962;8.560;2023-03-19T17:28:54;99992.16;;;12.03;100.00
31096;BME280;17749;51.962;8.560;2023-03-19T17:33:50;99991.66;;;11.95;100.00
31096;BME280;17749;51.962;8.560;2023-03-19T17:36:17;99994.59;;;11.89;100.00
31096;BME280;17749;51.962;8.560;2023-03-19T17:38:45;100008.13;;;11.84;100.00
31096;BME280;17749;51.962;8.560;2023-03-19T17:41:16;100004.75;;;11.80;100.00
31096;BME280;17749;51.962;8.560;2023-03-19T17:43:45;100005.91;;;11.75;100.00
31096;BME280;17749;51.962;8.560;2023-03-19T17:46:16;100003.28;;;11.73;100.00
31096;BME280;17749;51.962;8.560;2023-03-19T17:48:48;99996.59;;;11.65;100.00
31096;BME280;17749;51.962;8.560;2023-03-19T17:51:16;100009.28;;;11.59;100.00
31096;BME280;17749;51.962;8.560;2023-03-19T17:53:47;100013.88;;;11.56;100.00
31096;BME280;17749;51.962;8.560;2023-03-19T17:56:18;100010.75;;;11.46;100.00
31096;BME280;17749;51.962;8.560;2023-03-19T17:58:46;100017.97;;;11.44;100.00
31096;BME280;17749;51.962;8.560;2023-03-19T18:01:21;100008.59;;;11.35;100.00
31096;BME280;17749;51.962;8.560;2023-03-19T18:03:50;100021.25;;;11.30;100.00
31096;BME280;17749;51.962;8.560;2023-03-19T18:06:22;100013.53;;;11.24;100.00
31096;BME280;17749;51.962;8.560;2023-03-19T18:08:49;100019.13;;;11.18;100.00
31096;BME280;17749;51.962;8.560;2023-03-19T18:11:16;100036.97;;;11.16;100.00
31096;BME280;17749;51.962;8.560;2023-03-19T18:13:46;100026.72;;;11.07;100.00
31096;BME280;17749;51.962;8.560;2023-03-19T18:18:48;100041.00;;;11.06;100.00
31096;BME280;17749;51.962;8.560;2023-03-19T18:21:16;100042.91;;;11.02;100.00
31096;BME280;17749;51.962;8.560;2023-03-19T18:23:43;100039.53;;;10.99;100.00
31096;BME280;17749;51.962;8.560;2023-03-19T18:26:11;100039.75;;;10.92;100.00
31096;BME280;17749;51.962;8.560;2023-03-19T18:28:38;100054.16;;;10.88;100.00
31096;BME280;17749;51.962;8.560;2023-03-19T18:31:13;100057.94;;;10.83;100.00
31096;BME280;17749;51.962;8.560;2023-03-19T18:33:46;100066.94;;;10.80;100.00
31096;BME280;17749;51.962;8.560;2023-03-19T18:36:19;100067.06;;;10.77;100.00
31096;BME280;17749;51.962;8.560;2023-03-19T18:38:50;100062.78;;;10.73;100.00
31096;BME280;17749;51.962;8.560;2023-03-19T18:41:18;100060.19;;;10.71;100.00
31096;BME280;17749;51.962;8.560;2023-03-19T18:44:02;100065.72;;;10.67;100.00
31096;BME280;17749;51.962;8.560;2023-03-19T18:46:30;100075.44;;;10.68;100.00
31096;BME280;17749;51.962;8.560;2023-03-19T18:49:00;100079.16;;;10.64;100.00
31096;BME280;17749;51.962;8.560;2023-03-19T18:51:28;100080.94;;;10.63;100.00
31096;BME280;17749;51.962;8.560;2023-03-19T18:53:56;100076.59;;;10.61;100.00
31096;BME280;17749;51.962;8.560;2023-03-19T18:56:25;100084.72;;;10.58;100.00
31096;BME280;17749;51.962;8.560;2023-03-19T18:58:56;100087.38;;;10.58;100.00
31096;BME280;17749;51.962;8.560;2023-03-19T19:01:27;100088.38;;;10.55;100.00
31096;BME280;17749;51.962;8.560;2023-03-19T19:03:54;100093.78;;;10.53;100.00
31096;BME280;17749;51.962;8.560;2023-03-19T19:06:28;100098.16;;;10.55;100.00
31096;BME280;17749;51.962;8.560;2023-03-19T19:09:13;100104.34;;;10.55;100.00
31096;BME280;17749;51.962;8.560;2023-03-19T19:11:43;100102.75;;;10.51;100.00
31096;BME280;17749;51.962;8.560;2023-03-19T19:14:22;100105.59;;;10.46;100.00
31096;BME280;17749;51.962;8.560;2023-03-19T19:16:51;100109.06;;;10.48;100.00
31096;BME280;17749;51.962;8.560;2023-03-19T19:19:22;100114.31;;;10.50;100.00
31096;BME280;17749;51.962;8.560;2023-03-19T19:21:50;100109.19;;;10.45;100.00
31096;BME280;17749;51.962;8.560;2023-03-19T19:24:17;100111.84;;;10.45;100.00
31096;BME280;17749;51.962;8.560;2023-03-19T19:26:46;100116.38;;;10.43;100.00
31096;BME280;17749;51.962;8.560;2023-03-19T19:31:47;100126.06;;;10.44;100.00
31096;BME280;17749;51.962;8.560;2023-03-19T19:34:14;100127.88;;;10.44;100.00
31096;BME280;17749;51.962;8.560;2023-03-19T19:36:42;100131.41;;;10.44;100.00
31096;BME280;17749;51.962;8.560;2023-03-19T19:39:09;100139.38;;;10.44;100.00
31096;BME280;17749;51.962;8.560;2023-03-19T19:41:36;100137.66;;;10.43;100.00
31096;BME280;17749;51.962;8.560;2023-03-19T19:44:04;100147.44;;;10.43;100.00
31096;BME280;17749;51.962;8.560;2023-03-19T19:46:32;100145.81;;;10.39;100.00
31096;BME280;17749;51.962;8.560;2023-03-19T19:48:59;100146.69;;;10.39;100.00
31096;BME280;17749;51.962;8.560;2023-03-19T19:51:26;100150.28;;;10.38;100.00
31096;BME280;17749;51.962;8.560;2023-03-19T19:53:55;100143.31;;;10.34;100.00
31096;BME280;17749;51.962;8.560;2023-03-19T19:56:24;100144.25;;;10.33;100.00
31096;BME280;17749;51.962;8.560;2023-03-19T19:58:53;100154.66;;;10.39;100.00
31096;BME280;17749;51.962;8.560;2023-03-19T20:01:22;100153.06;;;10.35;100.00
31096;BME280;17749;51.962;8.560;2023-03-19T20:03:50;100146.94;;;10.33;100.00
31096;BME280;17749;51.962;8.560;2023-03-19T20:06:18;100143.31;;;10.34;100.00
31096;BME280;17749;51.962;8.560;2023-03-19T20:08:45;100143.31;;;10.34;100.00
31096;BME280;17749;51.962;8.560;2023-03-19T20:11:16;100148.78;;;10.31;100.00
31096;BME280;17749;51.962;8.560;2023-03-19T20:13:46;100159.28;;;10.34;100.00
31096;BME280;17749;51.962;8.560;2023-03-19T20:16:19;100157.56;;;10.33;100.00
31096;BME280;17749;51.962;8.560;2023-03-19T20:18:47;100162.03;;;10.33;100.00
31096;BME280;17749;51.962;8.560;2023-03-19T20:21:16;100150.63;;;10.29;100.00
31096;BME280;17749;51.962;8.560;2023-03-19T20:23:44;100153.16;;;10.32;100.00
31096;BME280;17749;51.962;8.560;2023-03-19T20:26:16;100155.94;;;10.29;100.00
31096;BME280;17749;51.962;8.560;2023-03-19T20:28:45;100168.34;;;10.30;100.00
31096;BME280;17749;51.962;8.560;2023-03-19T20:31:30;100166.69;;;10.26;100.00
31096;BME280;17749;51.962;8.560;2023-03-19T20:33:58;100171.06;;;10.27;100.00
31096;BME280;17749;51.962;8.560;2023-03-19T20:36:25;100169.31;;;10.27;100.00
31096;BME280;17749;51.962;8.560;2023-03-19T20:38:52;100173.66;;;10.30;100.00
31096;BME280;17749;51.962;8.560;2023-03-19T20:41:21;100166.69;;;10.26;100.00
31096;BME280;17749;51.962;8.560;2023-03-19T20:43:49;100171.91;;;10.29;100.00
31096;BME280;17749;51.962;8.560;2023-03-19T20:46:18;100170.06;;;10.31;100.00
31096;BME280;17749;51.962;8.560;2023-03-19T20:48:46;100168.34;;;10.30;100.00
31096;BME280;17749;51.962;8.560;2023-03-19T20:51:21;100164.00;;;10.27;100.00
31096;BME280;17749;51.962;8.560;2023-03-19T20:53:50;100165.81;;;10.25;100.00
31096;BME280;17749;51.962;8.560;2023-03-19T20:56:21;100169.34;;;10.26;100.00
31096;BME280;17749;51.962;8.560;2023-03-19T20:58:50;100174.75;;;10.24;100.00
31096;BME280;17749;51.962;8.560;2023-03-19T21:01:17;100179.25;;;10.22;100.00
31096;BME280;17749;51.962;8.560;2023-03-19T21:03:46;100177.31;;;10.26;100.00
31096;BME280;17749;51.962;8.560;2023-03-19T21:06:21;100180.84;;;10.28;100.00
31096;BME280;17749;51.962;8.560;2023-03-19T21:08:54;100179.28;;;10.21;100.00
31096;BME280;17749;51.962;8.560;2023-03-19T21:11:42;100180.91;;;10.25;100.00
31096;BME280;17749;51.962;8.560;2023-03-19T21:14:13;100175.59;;;10.25;100.00
31096;BME280;17749;51.962;8.560;2023-03-19T21:16:44;100175.59;;;10.25;100.00
31096;BME280;17749;51.962;8.560;2023-03-19T21:19:11;100187.03;;;10.28;100.00
31096;BME280;17749;51.962;8.560;2023-03-19T21:21:38;100181.81;;;10.24;100.00
31096;BME280;17749;51.962;8.560;2023-03-19T21:24:09;100189.69;;;10.27;100.00